createdAt,value
2019-03-12T00:01:28.495Z,42.40
2019-03-12T00:04:13.738Z,42.00
2019-03-12T00:06:59.843Z,41.03
2019-03-12T00:09:45.555Z,39.17
2019-03-12T00:12:30.473Z,38.17
2019-03-12T00:15:15.385Z,36.57
2019-03-12T00:18:00.773Z,42.73
2019-03-12T00:20:46.553Z,41.13
2019-03-12T00:23:32.948Z,34.90
2019-03-12T00:26:19.833Z,37.70
2019-03-12T00:29:04.872Z,33.27
2019-03-12T00:31:50.313Z,28.50
2019-03-12T00:34:35.428Z,37.17
2019-03-12T00:37:20.770Z,33.83
2019-03-12T00:40:08.323Z,37.33
2019-03-12T00:42:53.979Z,33.53
2019-03-12T00:45:39.906Z,35.03
2019-03-12T00:48:25.274Z,34.90
2019-03-12T00:51:10.395Z,33.60
2019-03-12T00:53:56.395Z,29.17
2019-03-12T00:56:42.996Z,29.00
2019-03-12T00:59:28.410Z,40.93
2019-03-12T01:02:13.438Z,29.70
2019-03-12T01:04:58.281Z,30.43
2019-03-12T01:07:45.508Z,25.53
2019-03-12T01:10:30.305Z,32.33
2019-03-12T01:13:16.999Z,23.27
2019-03-12T01:16:02.238Z,24.27
2019-03-12T01:18:47.715Z,29.43
2019-03-12T01:21:34.098Z,39.27
2019-03-12T01:24:19.514Z,25.53
2019-03-12T01:27:05.078Z,36.00
2019-03-12T01:29:50.694Z,29.47
2019-03-12T01:32:38.204Z,30.63
2019-03-12T01:35:23.326Z,35.57
2019-03-12T01:38:08.800Z,33.23
2019-03-12T01:40:54.218Z,29.53
2019-03-12T01:43:39.388Z,34.00
2019-03-12T01:46:24.772Z,37.10
2019-03-12T01:49:09.936Z,34.90
2019-03-12T01:51:55.400Z,35.47
2019-03-12T01:54:40.626Z,32.87
2019-03-12T01:57:27.513Z,35.47
2019-03-12T02:00:15.730Z,32.07
2019-03-12T02:03:01.498Z,35.87
2019-03-12T02:05:46.782Z,34.23
2019-03-12T02:08:31.799Z,30.50
2019-03-12T02:11:16.842Z,35.73
2019-03-12T02:14:06.219Z,33.53
2019-03-12T02:16:53.325Z,34.53
2019-03-12T02:19:38.070Z,32.33
2019-03-12T02:22:23.215Z,35.50
2019-03-12T02:25:17.022Z,29.67
2019-03-12T02:28:04.352Z,37.03
2019-03-12T02:30:49.603Z,34.57
2019-03-12T02:33:34.980Z,33.13
2019-03-12T02:36:19.804Z,34.43
2019-03-12T02:39:07.252Z,31.07
2019-03-12T02:41:52.053Z,26.57
2019-03-12T02:44:37.377Z,34.97
2019-03-12T02:47:22.512Z,30.33
2019-03-12T02:50:10.347Z,36.10
2019-03-12T02:52:55.447Z,32.00
2019-03-12T02:55:40.982Z,31.03
2019-03-12T02:58:26.257Z,32.17
2019-03-12T03:01:11.355Z,31.50
2019-03-12T03:03:56.673Z,30.27
2019-03-12T03:06:55.363Z,27.63
2019-03-12T03:09:40.622Z,30.23
2019-03-12T03:12:26.662Z,28.83
2019-03-12T03:15:15.642Z,31.73
2019-03-12T03:18:01.122Z,31.37
2019-03-12T03:20:46.203Z,30.10
2019-03-12T03:23:31.361Z,30.50
2019-03-12T03:26:16.455Z,31.27
2019-03-12T03:29:02.585Z,34.30
2019-03-12T03:31:47.655Z,35.47
2019-03-12T03:34:32.698Z,28.33
2019-03-12T03:37:18.751Z,28.37
2019-03-12T03:40:05.458Z,31.57
2019-03-12T03:42:50.619Z,33.70
2019-03-12T03:45:36.096Z,27.50
2019-03-12T03:48:21.132Z,29.00
2019-03-12T03:51:07.729Z,33.97
2019-03-12T03:53:52.871Z,32.03
2019-03-12T03:56:38.265Z,26.40
2019-03-12T03:59:23.478Z,25.40
2019-03-12T04:02:08.783Z,23.83
2019-03-12T04:04:53.891Z,27.50
2019-03-12T04:07:38.735Z,24.93
2019-03-12T04:10:24.275Z,24.43
2019-03-12T04:13:08.917Z,29.13
2019-03-12T04:15:55.084Z,31.57
2019-03-12T04:18:40.349Z,26.10
2019-03-12T04:21:25.658Z,24.50
2019-03-12T04:24:11.373Z,20.37
2019-03-12T04:26:56.291Z,22.97
2019-03-12T04:29:41.891Z,24.03
2019-03-12T04:32:26.873Z,24.10
2019-03-12T04:35:15.254Z,19.50
2019-03-12T04:38:00.624Z,21.57
2019-03-12T04:40:45.632Z,19.03
2019-03-12T04:43:31.277Z,22.67
2019-03-12T04:46:16.753Z,17.73
2019-03-12T04:49:01.771Z,19.40
2019-03-12T04:51:46.744Z,18.60
2019-03-12T04:54:32.034Z,17.43
2019-03-12T04:57:17.414Z,22.13
2019-03-12T05:00:06.409Z,21.10
2019-03-12T05:02:51.216Z,17.17
2019-03-12T05:05:36.141Z,18.03
2019-03-12T05:08:21.279Z,25.50
2019-03-12T05:11:06.423Z,28.07
2019-03-12T05:14:21.727Z,27.03
2019-03-12T05:17:07.283Z,23.33
2019-03-12T05:19:52.657Z,21.97
2019-03-12T05:22:37.748Z,21.73
2019-03-12T05:25:23.157Z,28.83
2019-03-12T05:28:08.344Z,23.80
2019-03-12T05:30:53.576Z,19.33
2019-03-12T05:33:38.876Z,21.20
2019-03-12T05:36:23.875Z,20.67
2019-03-12T05:39:11.367Z,18.60
2019-03-12T05:41:56.414Z,19.03
2019-03-12T05:44:41.660Z,16.40
2019-03-12T05:47:26.781Z,14.70
2019-03-12T05:50:15.090Z,19.03
2019-03-12T05:53:14.331Z,18.33
2019-03-12T05:55:59.233Z,19.27
2019-03-12T05:58:45.788Z,18.70
2019-03-12T06:01:30.878Z,21.90
2019-03-12T06:04:16.146Z,23.60
2019-03-12T06:07:03.528Z,23.97
2019-03-12T06:09:48.644Z,15.63
2019-03-12T06:12:33.937Z,21.13
2019-03-12T06:15:19.193Z,23.47
2019-03-12T06:18:04.394Z,17.03
2019-03-12T06:20:49.683Z,18.97
2019-03-12T06:23:36.148Z,19.07
2019-03-12T06:26:21.283Z,14.47
2019-03-12T06:29:06.351Z,14.13
2019-03-12T06:31:53.403Z,12.97
2019-03-12T06:34:42.005Z,15.57
2019-03-12T06:37:41.514Z,11.77
2019-03-12T06:40:34.528Z,13.33
2019-03-12T06:43:21.915Z,13.50
2019-03-12T06:46:26.172Z,12.63
2019-03-12T06:49:28.220Z,19.57
2019-03-12T06:52:24.160Z,17.77
2019-03-12T06:55:11.405Z,14.47
2019-03-12T06:58:00.868Z,16.87
2019-03-12T07:00:49.761Z,18.97
2019-03-12T07:03:42.591Z,15.80
2019-03-12T07:06:30.113Z,17.60
2019-03-12T07:09:17.540Z,11.80
2019-03-12T07:12:04.947Z,29.00
2019-03-12T07:14:53.623Z,21.13
2019-03-12T07:17:49.403Z,17.63
2019-03-12T07:20:45.389Z,22.50
2019-03-12T07:23:49.480Z,25.27
2019-03-12T07:26:38.633Z,18.53
2019-03-12T07:29:25.789Z,16.40
2019-03-12T07:32:15.732Z,12.13
2019-03-12T07:35:09.563Z,11.43
2019-03-12T07:37:56.940Z,13.73
2019-03-12T07:40:43.953Z,16.17
2019-03-12T07:43:30.670Z,15.07
2019-03-12T07:46:33.920Z,18.13
2019-03-12T07:49:21.709Z,17.20
2019-03-12T07:52:08.909Z,14.37
2019-03-12T07:54:56.193Z,15.53
2019-03-12T07:57:59.565Z,15.93
2019-03-12T08:00:56.454Z,12.60
2019-03-12T08:04:00.121Z,12.20
2019-03-12T08:06:47.247Z,14.70
2019-03-12T08:09:36.818Z,16.77
2019-03-12T08:12:29.838Z,49.53
2019-03-12T08:15:33.500Z,17.87
2019-03-12T08:18:20.723Z,11.03
2019-03-12T08:21:24.734Z,17.43
2019-03-12T08:24:30.900Z,17.67
2019-03-12T08:27:26.696Z,12.87
2019-03-12T08:30:16.937Z,14.03
2019-03-12T08:33:06.756Z,12.93
2019-03-12T08:36:02.601Z,12.50
2019-03-12T08:38:58.434Z,10.87
2019-03-12T08:42:04.711Z,11.87
2019-03-12T08:45:10.967Z,10.73
2019-03-12T08:47:58.413Z,15.87
2019-03-12T08:50:58.057Z,17.40
2019-03-12T08:53:48.078Z,8.47
2019-03-12T08:56:47.503Z,15.50
2019-03-12T08:59:34.689Z,12.30
2019-03-12T09:02:21.981Z,11.80
2019-03-12T09:05:09.107Z,10.93
2019-03-12T09:08:08.227Z,12.43
2019-03-12T09:11:01.223Z,12.17
2019-03-12T09:13:47.990Z,16.93
2019-03-12T09:16:37.564Z,9.73
2019-03-12T09:19:39.976Z,10.27
2019-03-12T09:22:38.964Z,10.60
2019-03-12T09:25:29.253Z,13.60
2019-03-12T09:28:21.718Z,9.10
2019-03-12T09:31:11.432Z,12.93
2019-03-12T09:33:58.395Z,16.57
2019-03-12T09:37:02.797Z,16.37
2019-03-12T09:40:04.847Z,15.53
2019-03-12T09:42:54.636Z,18.37
2019-03-12T09:45:41.973Z,27.23
2019-03-12T09:48:40.616Z,23.67
2019-03-12T09:51:27.704Z,28.73
2019-03-12T09:54:23.318Z,29.27
2019-03-12T09:57:13.215Z,33.87
2019-03-12T10:00:14.791Z,35.80
2019-03-12T10:02:54.869Z,38.83
2019-03-12T10:05:57.121Z,34.50
2019-03-12T10:09:00.729Z,39.57
2019-03-12T10:11:51.662Z,40.37
2019-03-12T10:14:52.129Z,36.70
2019-03-12T10:17:48.604Z,38.27
2019-03-12T10:20:38.549Z,38.03
2019-03-12T10:23:25.768Z,36.67
2019-03-12T10:26:12.745Z,33.50
2019-03-12T10:29:18.058Z,32.73
2019-03-12T10:32:21.281Z,30.80
2019-03-12T10:35:08.604Z,31.87
2019-03-12T10:37:59.706Z,32.43
2019-03-12T10:40:47.004Z,31.23
2019-03-12T10:43:34.225Z,33.50
2019-03-12T10:46:21.034Z,31.27
2019-03-12T10:49:06.257Z,27.83
2019-03-12T10:51:51.333Z,26.93
2019-03-12T10:54:36.811Z,25.67
2019-03-12T10:57:21.872Z,29.50
2019-03-12T11:00:15.729Z,35.17
2019-03-12T11:03:02.800Z,27.43
2019-03-12T11:05:47.987Z,27.60
2019-03-12T11:08:33.326Z,24.17
2019-03-12T11:11:18.572Z,24.90
2019-03-12T11:14:03.941Z,25.03
2019-03-12T11:16:49.118Z,29.73
2019-03-12T11:19:34.614Z,28.33
2019-03-12T11:22:19.794Z,25.63
2019-03-12T11:25:06.329Z,28.33
2019-03-12T11:27:51.550Z,29.10
2019-03-12T11:30:37.049Z,25.90
2019-03-12T11:33:23.152Z,27.57
2019-03-12T11:36:08.555Z,26.33
2019-03-12T11:38:55.068Z,30.93
2019-03-12T11:41:40.435Z,27.40
2019-03-12T11:44:25.305Z,24.80
2019-03-12T11:47:10.424Z,28.47
2019-03-12T11:49:55.971Z,25.60
2019-03-12T11:52:40.959Z,28.03
2019-03-12T11:55:26.484Z,26.53
2019-03-12T11:58:13.461Z,24.40
2019-03-12T12:01:02.692Z,27.40
2019-03-12T12:03:47.916Z,24.60
2019-03-12T12:06:34.365Z,23.50
2019-03-12T12:09:19.611Z,26.93
2019-03-12T12:12:05.310Z,22.67
2019-03-12T12:14:51.102Z,22.48
2019-03-12T12:17:36.295Z,22.93
2019-03-12T12:20:29.483Z,21.57
2019-03-12T12:23:09.025Z,25.07
2019-03-12T12:25:54.467Z,23.00
2019-03-12T12:28:39.826Z,27.50
2019-03-12T12:31:25.186Z,23.63
2019-03-12T12:34:10.296Z,26.07
2019-03-12T12:36:56.377Z,23.30
2019-03-12T12:39:41.159Z,20.83
2019-03-12T12:42:26.404Z,17.10
2019-03-12T12:45:32.244Z,19.57
2019-03-12T12:48:17.589Z,19.83
2019-03-12T12:51:03.894Z,20.83
2019-03-12T12:53:49.130Z,16.10
2019-03-12T12:56:35.416Z,20.10
2019-03-12T12:59:22.584Z,18.03
2019-03-12T13:02:09.944Z,18.00
2019-03-12T13:04:54.928Z,16.30
2019-03-12T13:07:41.312Z,16.23
2019-03-12T13:10:27.886Z,16.63
2019-03-12T13:13:12.724Z,17.07
2019-03-12T13:15:58.385Z,17.93
2019-03-12T13:18:43.111Z,16.30
2019-03-12T13:21:28.537Z,20.03
2019-03-12T13:24:14.127Z,17.37
2019-03-12T13:26:59.149Z,17.50
2019-03-12T13:29:44.616Z,18.83
2019-03-12T13:32:30.836Z,18.97
2019-03-12T13:35:17.296Z,20.67
2019-03-12T13:38:02.656Z,17.33
2019-03-12T13:40:47.901Z,18.23
2019-03-12T13:43:32.921Z,19.07
2019-03-12T13:46:18.575Z,17.00
2019-03-12T13:49:04.151Z,17.77
2019-03-12T13:51:49.571Z,18.57
2019-03-12T13:54:34.800Z,25.47
2019-03-12T13:57:20.304Z,22.67
2019-03-12T14:00:09.352Z,20.27
2019-03-12T14:02:54.465Z,22.57
2019-03-12T14:05:39.724Z,19.43
2019-03-12T14:08:25.576Z,20.23
2019-03-12T14:11:10.851Z,18.87
2019-03-12T14:13:55.773Z,22.20
2019-03-12T14:16:41.494Z,19.03
2019-03-12T14:19:27.287Z,20.97
2019-03-12T14:22:13.054Z,14.93
2019-03-12T14:24:59.953Z,19.63
2019-03-12T14:27:46.623Z,14.97
2019-03-12T14:30:32.004Z,25.43
2019-03-12T14:33:17.130Z,31.93
2019-03-12T14:36:02.252Z,20.37
2019-03-12T14:38:48.263Z,20.97
2019-03-12T14:41:34.308Z,23.63
2019-03-12T14:44:20.645Z,17.47
2019-03-12T14:47:06.346Z,18.23
2019-03-12T14:49:51.938Z,22.97
2019-03-12T14:52:37.975Z,18.17
2019-03-12T14:55:24.009Z,18.70
2019-03-12T14:58:11.097Z,17.87
2019-03-12T15:00:56.345Z,16.20
2019-03-12T15:03:41.861Z,17.87
2019-03-12T15:06:26.946Z,17.43
2019-03-12T15:09:13.719Z,18.73
2019-03-12T15:11:58.629Z,19.23
2019-03-12T15:14:45.907Z,18.53
2019-03-12T15:17:31.540Z,18.20
2019-03-12T15:20:16.774Z,22.20
2019-03-12T15:23:01.909Z,15.83
2019-03-12T15:25:47.332Z,18.50
2019-03-12T15:28:32.361Z,20.47
2019-03-12T15:31:18.142Z,18.17
2019-03-12T15:34:03.342Z,21.70
2019-03-12T15:36:50.103Z,22.77
2019-03-12T15:39:34.868Z,20.40
2019-03-12T15:42:20.078Z,18.43
2019-03-12T15:45:13.925Z,24.07
2019-03-12T15:47:59.126Z,22.37
2019-03-12T15:50:45.428Z,21.00
2019-03-12T15:53:30.596Z,22.97
2019-03-12T15:56:16.412Z,19.93
2019-03-12T15:59:01.801Z,21.23
2019-03-12T16:01:47.312Z,19.93
2019-03-12T16:04:32.725Z,23.50
2019-03-12T16:07:17.857Z,22.00
2019-03-12T16:10:14.756Z,22.70
2019-03-12T16:13:00.206Z,18.13
2019-03-12T16:15:45.563Z,20.03
2019-03-12T16:18:30.343Z,20.47
2019-03-12T16:21:15.468Z,19.00
2019-03-12T16:24:00.989Z,17.03
2019-03-12T16:26:46.454Z,18.17
2019-03-12T16:29:31.495Z,19.87
2019-03-12T16:32:16.436Z,19.70
2019-03-12T16:35:01.796Z,22.50
2019-03-12T16:37:47.244Z,17.27
2019-03-12T16:40:32.395Z,20.70
2019-03-12T16:43:17.407Z,17.57
2019-03-12T16:46:02.971Z,18.67
2019-03-12T16:48:48.178Z,18.50
2019-03-12T16:51:33.268Z,14.87
2019-03-12T16:54:19.151Z,15.57
2019-03-12T16:57:04.329Z,16.40
2019-03-12T16:59:49.176Z,19.80
2019-03-12T17:02:34.369Z,15.93
2019-03-12T17:05:19.564Z,15.57
2019-03-12T17:08:04.677Z,16.10
2019-03-12T17:10:56.843Z,18.83
2019-03-12T17:13:36.552Z,19.50
2019-03-12T17:16:21.672Z,21.27
2019-03-12T17:19:07.296Z,16.70
2019-03-12T17:21:52.394Z,19.03
2019-03-12T17:24:37.522Z,22.67
2019-03-12T17:27:22.918Z,18.77
2019-03-12T17:30:14.637Z,22.07
2019-03-12T17:32:59.778Z,27.70
2019-03-12T17:35:45.125Z,23.30
2019-03-12T17:38:45.562Z,22.23
2019-03-12T17:41:17.454Z,25.10
2019-03-12T17:44:03.115Z,23.37
2019-03-12T17:47:18.696Z,26.27
2019-03-12T17:49:36.777Z,25.67
2019-03-12T17:52:21.849Z,22.03
2019-03-12T17:55:12.847Z,24.43
2019-03-12T17:57:58.195Z,26.63
2019-03-12T18:00:44.862Z,26.67
2019-03-12T18:03:30.139Z,24.13
2019-03-12T18:06:15.343Z,26.30
2019-03-12T18:09:00.991Z,27.00
2019-03-12T18:11:47.217Z,47.43
2019-03-12T18:14:32.263Z,31.03
2019-03-12T18:17:17.677Z,28.83
2019-03-12T18:20:08.648Z,27.80
2019-03-12T18:22:54.994Z,31.93
2019-03-12T18:25:43.427Z,28.13
2019-03-12T18:28:28.623Z,32.70
2019-03-12T18:31:14.153Z,31.80
2019-03-12T18:34:00.165Z,32.97
2019-03-12T18:36:45.037Z,37.10
2019-03-12T18:39:30.085Z,32.63
2019-03-12T18:42:15.169Z,36.23
2019-03-12T18:45:00.385Z,33.03
2019-03-12T18:47:45.344Z,34.13
2019-03-12T18:50:31.323Z,41.03
2019-03-12T18:53:16.636Z,38.43
2019-03-12T18:56:03.162Z,40.40
2019-03-12T18:58:48.242Z,39.83
2019-03-12T19:01:33.268Z,35.10
2019-03-12T19:04:18.425Z,33.20
2019-03-12T19:07:03.622Z,42.40
2019-03-12T19:09:49.418Z,42.70
2019-03-12T19:12:34.816Z,34.30
2019-03-12T19:15:20.074Z,30.10
2019-03-12T19:18:05.078Z,28.63
2019-03-12T19:20:50.198Z,30.00
2019-03-12T19:23:35.378Z,25.40
2019-03-12T19:26:20.460Z,29.10
2019-03-12T19:29:05.515Z,35.30
2019-03-12T19:31:52.169Z,29.37
2019-03-12T19:34:37.399Z,28.73
2019-03-12T19:37:22.502Z,29.93
2019-03-12T19:40:14.292Z,33.47
2019-03-12T19:42:59.407Z,31.00
2019-03-12T19:45:44.386Z,34.83
2019-03-12T19:48:29.687Z,34.37
2019-03-12T19:51:14.810Z,41.60
2019-03-12T19:53:59.981Z,40.67
2019-03-12T19:56:45.277Z,44.50
2019-03-12T19:59:30.481Z,48.23
2019-03-12T20:02:16.684Z,45.60
2019-03-12T20:05:02.330Z,50.53
2019-03-12T20:07:47.494Z,53.13
2019-03-12T20:10:42.033Z,52.10
2019-03-12T20:13:43.059Z,48.13
2019-03-12T20:17:08.097Z,50.10
2019-03-12T20:20:18.094Z,47.93
2019-03-12T20:23:26.981Z,54.13
2019-03-12T20:26:25.088Z,50.13
2019-03-12T20:29:20.006Z,50.67
2019-03-12T20:32:23.575Z,51.73
2019-03-12T20:35:46.664Z,50.17
2019-03-12T20:39:01.392Z,54.07
2019-03-12T20:42:07.118Z,51.20
2019-03-12T20:45:14.062Z,48.90
2019-03-12T20:48:09.407Z,75.13
2019-03-12T20:51:32.042Z,57.87
2019-03-12T20:54:40.709Z,53.53
2019-03-12T20:57:47.214Z,55.43
2019-03-12T21:00:41.928Z,55.90
2019-03-12T21:03:41.904Z,52.00
2019-03-12T21:06:47.203Z,53.87
2019-03-12T21:10:00.892Z,52.80
2019-03-12T21:13:01.616Z,56.10
2019-03-12T21:15:54.903Z,54.57
2019-03-12T21:18:49.780Z,58.13
2019-03-12T21:22:02.671Z,56.00
2019-03-12T21:24:46.836Z,54.27
2019-03-12T21:27:50.997Z,58.17
2019-03-12T21:30:36.400Z,54.63
2019-03-12T21:33:21.554Z,58.93
2019-03-12T21:36:08.253Z,59.93
2019-03-12T21:38:53.775Z,55.93
2019-03-12T21:41:38.895Z,60.13
2019-03-12T21:44:24.027Z,80.37
2019-03-12T21:47:09.569Z,62.93
2019-03-12T21:49:54.649Z,57.90
2019-03-12T21:52:40.764Z,62.23
2019-03-12T21:55:26.032Z,67.30
2019-03-12T21:58:10.887Z,63.63
2019-03-12T22:00:56.083Z,66.80
2019-03-12T22:03:41.054Z,63.27
2019-03-12T22:06:26.543Z,71.57
2019-03-12T22:11:47.159Z,63.17
2019-03-12T22:14:32.389Z,68.93
2019-03-12T22:17:17.669Z,73.10
2019-03-12T22:20:06.353Z,67.10
2019-03-12T22:22:53.015Z,73.40
2019-03-12T22:25:38.670Z,62.70
2019-03-12T22:28:24.307Z,71.27
2019-03-12T22:31:09.229Z,66.93
2019-03-12T22:33:54.392Z,68.90
2019-03-12T22:36:40.129Z,65.37
2019-03-12T22:39:25.487Z,65.17
2019-03-12T22:42:10.313Z,71.07
2019-03-12T22:44:55.635Z,61.70
2019-03-12T22:47:41.535Z,61.73
2019-03-12T22:50:26.840Z,60.70
2019-03-12T22:53:13.106Z,56.70
2019-03-12T22:55:58.399Z,60.80
2019-03-12T22:58:45.490Z,59.20
2019-03-12T23:01:32.432Z,57.03
2019-03-12T23:04:17.834Z,75.30
2019-03-12T23:07:03.215Z,55.43
2019-03-12T23:09:50.244Z,57.47
2019-03-12T23:12:35.624Z,52.53
2019-03-12T23:15:21.412Z,54.43
2019-03-12T23:18:06.385Z,54.07
2019-03-12T23:20:52.176Z,57.27
2019-03-12T23:23:37.158Z,54.20
2019-03-12T23:26:22.551Z,54.13
2019-03-12T23:29:08.333Z,50.27
2019-03-12T23:31:54.125Z,49.60
2019-03-12T23:34:39.507Z,53.13
2019-03-12T23:37:25.297Z,56.73
2019-03-12T23:40:18.613Z,99.87
2019-03-12T23:43:03.920Z,58.30
2019-03-12T23:45:49.382Z,52.27
2019-03-12T23:48:36.438Z,54.10
2019-03-12T23:51:22.724Z,58.40
2019-03-12T23:54:08.806Z,58.37
2019-03-12T23:56:54.193Z,53.50
2019-03-12T23:59:39.578Z,53.47
